sensor_id;sensor_type;location;lat;lon;timestamp;P1;durP1;ratioP1;P2;durP2;ratioP2
38023;SDS011;23834;48.080;11.682;2023-05-07T00:02:13;2.93;;;2.73;;
38023;SDS011;23834;48.080;11.682;2023-05-07T00:04:39;3.57;;;3.27;;
38023;SDS011;23834;48.080;11.682;2023-05-07T00:07:04;3.90;;;3.60;;
38023;SDS011;23834;48.080;11.682;2023-05-07T00:09:29;3.67;;;3.43;;
38023;SDS011;23834;48.080;11.682;2023-05-07T00:11:55;3.90;;;3.60;;
38023;SDS011;23834;48.080;11.682;2023-05-07T00:14:21;3.53;;;3.23;;
38023;SDS011;23834;48.080;11.682;2023-05-07T00:16:46;3.27;;;2.97;;
38023;SDS011;23834;48.080;11.682;2023-05-07T00:19:11;3.40;;;3.10;;
38023;SDS011;23834;48.080;11.682;2023-05-07T00:21:36;2.80;;;2.60;;
38023;SDS011;23834;48.080;11.682;2023-05-07T00:24:01;3.40;;;3.20;;
38023;SDS011;23834;48.080;11.682;2023-05-07T00:26:27;3.27;;;2.90;;
38023;SDS011;23834;48.080;11.682;2023-05-07T00:28:52;3.50;;;3.20;;
38023;SDS011;23834;48.080;11.682;2023-05-07T00:31:17;3.27;;;3.07;;
38023;SDS011;23834;48.080;11.682;2023-05-07T00:33:42;3.60;;;3.30;;
38023;SDS011;23834;48.080;11.682;2023-05-07T00:36:07;3.40;;;3.20;;
38023;SDS011;23834;48.080;11.682;2023-05-07T00:38:33;3.10;;;2.80;;
38023;SDS011;23834;48.080;11.682;2023-05-07T00:40:58;3.20;;;3.00;;
38023;SDS011;23834;48.080;11.682;2023-05-07T00:43:23;3.50;;;3.20;;
38023;SDS011;23834;48.080;11.682;2023-05-07T00:45:49;3.13;;;2.93;;
38023;SDS011;23834;48.080;11.682;2023-05-07T00:48:14;3.50;;;3.30;;
38023;SDS011;23834;48.080;11.682;2023-05-07T00:50:40;3.20;;;3.00;;
38023;SDS011;23834;48.080;11.682;2023-05-07T00:53:05;3.50;;;3.20;;
38023;SDS011;23834;48.080;11.682;2023-05-07T00:55:31;3.20;;;2.90;;
38023;SDS011;23834;48.080;11.682;2023-05-07T00:57:56;3.57;;;3.17;;
38023;SDS011;23834;48.080;11.682;2023-05-07T01:00:21;3.07;;;2.87;;
38023;SDS011;23834;48.080;11.682;2023-05-07T01:02:47;3.73;;;3.50;;
38023;SDS011;23834;48.080;11.682;2023-05-07T01:05:12;3.33;;;3.07;;
38023;SDS011;23834;48.080;11.682;2023-05-07T01:07:38;3.37;;;3.17;;
38023;SDS011;23834;48.080;11.682;2023-05-07T01:10:05;2.90;;;2.70;;
38023;SDS011;23834;48.080;11.682;2023-05-07T01:12:31;3.43;;;3.23;;
38023;SDS011;23834;48.080;11.682;2023-05-07T01:14:56;3.20;;;3.00;;
38023;SDS011;23834;48.080;11.682;2023-05-07T01:17:21;3.10;;;2.90;;
38023;SDS011;23834;48.080;11.682;2023-05-07T01:19:47;3.60;;;3.30;;
38023;SDS011;23834;48.080;11.682;2023-05-07T01:22:13;3.30;;;3.10;;
38023;SDS011;23834;48.080;11.682;2023-05-07T01:24:40;3.00;;;2.80;;
38023;SDS011;23834;48.080;11.682;2023-05-07T01:27:06;3.40;;;3.10;;
38023;SDS011;23834;48.080;11.682;2023-05-07T01:29:31;3.90;;;3.50;;
38023;SDS011;23834;48.080;11.682;2023-05-07T01:31:57;3.17;;;2.97;;
38023;SDS011;23834;48.080;11.682;2023-05-07T01:34:23;2.97;;;2.77;;
38023;SDS011;23834;48.080;11.682;2023-05-07T01:36:50;3.00;;;2.80;;
38023;SDS011;23834;48.080;11.682;2023-05-07T01:39:15;3.30;;;3.10;;
38023;SDS011;23834;48.080;11.682;2023-05-07T01:41:41;3.23;;;3.03;;
38023;SDS011;23834;48.080;11.682;2023-05-07T01:44:08;3.60;;;3.30;;
38023;SDS011;23834;48.080;11.682;2023-05-07T01:46:33;3.40;;;3.10;;
38023;SDS011;23834;48.080;11.682;2023-05-07T01:48:59;3.30;;;3.10;;
38023;SDS011;23834;48.080;11.682;2023-05-07T01:51:24;2.73;;;2.50;;
38023;SDS011;23834;48.080;11.682;2023-05-07T01:53:50;3.43;;;3.23;;
38023;SDS011;23834;48.080;11.682;2023-05-07T01:56:17;3.27;;;3.07;;
38023;SDS011;23834;48.080;11.682;2023-05-07T01:58:43;3.27;;;3.07;;
38023;SDS011;23834;48.080;11.682;2023-05-07T02:01:09;3.37;;;3.07;;
38023;SDS011;23834;48.080;11.682;2023-05-07T02:03:34;2.90;;;2.70;;
38023;SDS011;23834;48.080;11.682;2023-05-07T02:05:59;3.50;;;3.00;;
38023;SDS011;23834;48.080;11.682;2023-05-07T02:08:24;3.30;;;3.00;;
38023;SDS011;23834;48.080;11.682;2023-05-07T02:10:50;3.50;;;3.30;;
38023;SDS011;23834;48.080;11.682;2023-05-07T02:13:16;3.37;;;3.17;;
38023;SDS011;23834;48.080;11.682;2023-05-07T02:15:41;3.33;;;3.00;;
38023;SDS011;23834;48.080;11.682;2023-05-07T02:18:07;3.23;;;2.97;;
38023;SDS011;23834;48.080;11.682;2023-05-07T02:20:33;3.70;;;3.50;;
38023;SDS011;23834;48.080;11.682;2023-05-07T02:22:59;3.47;;;3.27;;
38023;SDS011;23834;48.080;11.682;2023-05-07T02:25:24;3.10;;;2.90;;
38023;SDS011;23834;48.080;11.682;2023-05-07T02:27:49;3.37;;;3.17;;
38023;SDS011;23834;48.080;11.682;2023-05-07T02:30:14;3.23;;;3.03;;
38023;SDS011;23834;48.080;11.682;2023-05-07T02:32:40;3.20;;;2.93;;
38023;SDS011;23834;48.080;11.682;2023-05-07T02:35:05;3.37;;;3.07;;
38023;SDS011;23834;48.080;11.682;2023-05-07T02:37:30;3.53;;;3.23;;
38023;SDS011;23834;48.080;11.682;2023-05-07T02:39:56;3.33;;;3.10;;
38023;SDS011;23834;48.080;11.682;2023-05-07T02:42:21;3.20;;;2.83;;
38023;SDS011;23834;48.080;11.682;2023-05-07T02:44:46;2.90;;;2.70;;
38023;SDS011;23834;48.080;11.682;2023-05-07T02:47:11;2.93;;;2.80;;
38023;SDS011;23834;48.080;11.682;2023-05-07T02:49:38;2.90;;;2.70;;
38023;SDS011;23834;48.080;11.682;2023-05-07T02:52:03;3.30;;;3.00;;
38023;SDS011;23834;48.080;11.682;2023-05-07T02:54:28;3.20;;;3.00;;
38023;SDS011;23834;48.080;11.682;2023-05-07T02:56:53;3.10;;;2.90;;
38023;SDS011;23834;48.080;11.682;2023-05-07T02:59:18;3.17;;;2.97;;
38023;SDS011;23834;48.080;11.682;2023-05-07T03:01:43;3.73;;;3.27;;
38023;SDS011;23834;48.080;11.682;2023-05-07T03:04:10;2.90;;;2.70;;
38023;SDS011;23834;48.080;11.682;2023-05-07T03:06:35;3.23;;;2.40;;
38023;SDS011;23834;48.080;11.682;2023-05-07T03:09:00;3.60;;;3.00;;
38023;SDS011;23834;48.080;11.682;2023-05-07T03:11:26;2.93;;;2.80;;
38023;SDS011;23834;48.080;11.682;2023-05-07T03:13:51;2.93;;;2.73;;
38023;SDS011;23834;48.080;11.682;2023-05-07T03:16:16;2.93;;;2.73;;
38023;SDS011;23834;48.080;11.682;2023-05-07T03:18:41;2.80;;;2.70;;
38023;SDS011;23834;48.080;11.682;2023-05-07T03:21:06;2.83;;;2.63;;
38023;SDS011;23834;48.080;11.682;2023-05-07T03:23:31;2.90;;;2.70;;
38023;SDS011;23834;48.080;11.682;2023-05-07T03:25:57;3.10;;;2.90;;
38023;SDS011;23834;48.080;11.682;2023-05-07T03:28:22;2.90;;;2.70;;
38023;SDS011;23834;48.080;11.682;2023-05-07T03:30:47;3.33;;;3.10;;
38023;SDS011;23834;48.080;11.682;2023-05-07T03:33:12;3.03;;;2.83;;
38023;SDS011;23834;48.080;11.682;2023-05-07T03:35:37;3.00;;;2.80;;
38023;SDS011;23834;48.080;11.682;2023-05-07T03:38:02;3.27;;;3.07;;
38023;SDS011;23834;48.080;11.682;2023-05-07T03:40:28;3.30;;;3.00;;
38023;SDS011;23834;48.080;11.682;2023-05-07T03:42:53;3.27;;;3.07;;
38023;SDS011;23834;48.080;11.682;2023-05-07T03:45:18;4.77;;;3.20;;
38023;SDS011;23834;48.080;11.682;2023-05-07T03:47:43;3.23;;;3.03;;
38023;SDS011;23834;48.080;11.682;2023-05-07T03:50:09;2.97;;;2.77;;
38023;SDS011;23834;48.080;11.682;2023-05-07T03:52:35;3.10;;;2.90;;
38023;SDS011;23834;48.080;11.682;2023-05-07T03:55:00;2.97;;;2.77;;
38023;SDS011;23834;48.080;11.682;2023-05-07T03:57:25;3.20;;;3.00;;
38023;SDS011;23834;48.080;11.682;2023-05-07T03:59:50;2.90;;;2.70;;
38023;SDS011;23834;48.080;11.682;2023-05-07T04:02:15;3.23;;;2.80;;
38023;SDS011;23834;48.080;11.682;2023-05-07T04:04:41;3.10;;;2.90;;
38023;SDS011;23834;48.080;11.682;2023-05-07T04:07:06;3.00;;;2.80;;
38023;SDS011;23834;48.080;11.682;2023-05-07T04:09:32;2.97;;;2.77;;
38023;SDS011;23834;48.080;11.682;2023-05-07T04:11:57;3.00;;;2.80;;
38023;SDS011;23834;48.080;11.682;2023-05-07T04:14:22;2.60;;;2.50;;
38023;SDS011;23834;48.080;11.682;2023-05-07T04:16:47;3.40;;;3.20;;
38023;SDS011;23834;48.080;11.682;2023-05-07T04:19:12;3.07;;;2.87;;
38023;SDS011;23834;48.080;11.682;2023-05-07T04:21:38;2.83;;;2.63;;
38023;SDS011;23834;48.080;11.682;2023-05-07T04:24:03;2.93;;;2.73;;
38023;SDS011;23834;48.080;11.682;2023-05-07T04:26:29;2.73;;;2.60;;
38023;SDS011;23834;48.080;11.682;2023-05-07T04:28:54;3.27;;;2.97;;
38023;SDS011;23834;48.080;11.682;2023-05-07T04:31:20;3.40;;;3.10;;
38023;SDS011;23834;48.080;11.682;2023-05-07T04:33:45;2.50;;;2.40;;
38023;SDS011;23834;48.080;11.682;2023-05-07T04:36:10;3.10;;;2.90;;
38023;SDS011;23834;48.080;11.682;2023-05-07T04:38:36;2.57;;;2.47;;
38023;SDS011;23834;48.080;11.682;2023-05-07T04:41:04;2.90;;;2.70;;
38023;SDS011;23834;48.080;11.682;2023-05-07T04:43:30;2.90;;;2.70;;
38023;SDS011;23834;48.080;11.682;2023-05-07T04:45:55;3.47;;;3.20;;
38023;SDS011;23834;48.080;11.682;2023-05-07T04:48:20;2.87;;;2.67;;
38023;SDS011;23834;48.080;11.682;2023-05-07T04:50:49;3.13;;;2.93;;
38023;SDS011;23834;48.080;11.682;2023-05-07T04:53:14;2.67;;;2.53;;
38023;SDS011;23834;48.080;11.682;2023-05-07T04:55:40;2.73;;;2.53;;
38023;SDS011;23834;48.080;11.682;2023-05-07T04:58:05;2.53;;;2.33;;
38023;SDS011;23834;48.080;11.682;2023-05-07T05:00:30;3.10;;;2.90;;
38023;SDS011;23834;48.080;11.682;2023-05-07T05:02:55;2.63;;;2.43;;
38023;SDS011;23834;48.080;11.682;2023-05-07T05:05:20;2.63;;;2.53;;
38023;SDS011;23834;48.080;11.682;2023-05-07T05:07:45;3.13;;;2.93;;
38023;SDS011;23834;48.080;11.682;2023-05-07T05:10:11;2.83;;;2.63;;
38023;SDS011;23834;48.080;11.682;2023-05-07T05:12:36;2.60;;;2.50;;
38023;SDS011;23834;48.080;11.682;2023-05-07T05:15:01;3.30;;;3.00;;
38023;SDS011;23834;48.080;11.682;2023-05-07T05:17:26;2.70;;;2.50;;
38023;SDS011;23834;48.080;11.682;2023-05-07T05:19:52;2.80;;;2.60;;
38023;SDS011;23834;48.080;11.682;2023-05-07T05:22:17;2.77;;;2.57;;
38023;SDS011;23834;48.080;11.682;2023-05-07T05:24:42;3.03;;;2.80;;
38023;SDS011;23834;48.080;11.682;2023-05-07T05:27:07;2.90;;;2.80;;
38023;SDS011;23834;48.080;11.682;2023-05-07T05:29:33;2.70;;;2.50;;
38023;SDS011;23834;48.080;11.682;2023-05-07T05:31:58;2.63;;;2.43;;
38023;SDS011;23834;48.080;11.682;2023-05-07T05:34:23;3.20;;;2.90;;
38023;SDS011;23834;48.080;11.682;2023-05-07T05:36:48;2.60;;;2.40;;
38023;SDS011;23834;48.080;11.682;2023-05-07T05:39:13;3.30;;;3.10;;
38023;SDS011;23834;48.080;11.682;2023-05-07T05:41:39;2.97;;;2.77;;
38023;SDS011;23834;48.080;11.682;2023-05-07T05:44:04;2.70;;;2.50;;
38023;SDS011;23834;48.080;11.682;2023-05-07T05:46:29;2.83;;;2.60;;
38023;SDS011;23834;48.080;11.682;2023-05-07T05:48:55;2.67;;;2.47;;
38023;SDS011;23834;48.080;11.682;2023-05-07T05:51:20;2.87;;;2.70;;
38023;SDS011;23834;48.080;11.682;2023-05-07T05:53:45;2.70;;;2.50;;
38023;SDS011;23834;48.080;11.682;2023-05-07T05:56:11;3.13;;;2.93;;
38023;SDS011;23834;48.080;11.682;2023-05-07T05:58:36;2.60;;;2.50;;
38023;SDS011;23834;48.080;11.682;2023-05-07T06:01:01;2.63;;;2.43;;
38023;SDS011;23834;48.080;11.682;2023-05-07T06:03:27;2.60;;;2.50;;
38023;SDS011;23834;48.080;11.682;2023-05-07T06:05:52;2.73;;;2.53;;
38023;SDS011;23834;48.080;11.682;2023-05-07T06:08:18;3.03;;;2.83;;
38023;SDS011;23834;48.080;11.682;2023-05-07T06:10:43;2.80;;;2.60;;
38023;SDS011;23834;48.080;11.682;2023-05-07T06:13:09;2.63;;;2.50;;
38023;SDS011;23834;48.080;11.682;2023-05-07T06:15:34;2.93;;;2.73;;
38023;SDS011;23834;48.080;11.682;2023-05-07T06:17:59;2.83;;;2.63;;
38023;SDS011;23834;48.080;11.682;2023-05-07T06:20:24;2.40;;;2.30;;
38023;SDS011;23834;48.080;11.682;2023-05-07T06:22:50;2.73;;;2.53;;
38023;SDS011;23834;48.080;11.682;2023-05-07T06:25:15;2.83;;;2.63;;
38023;SDS011;23834;48.080;11.682;2023-05-07T06:27:40;2.90;;;2.70;;
38023;SDS011;23834;48.080;11.682;2023-05-07T06:30:05;2.47;;;2.27;;
38023;SDS011;23834;48.080;11.682;2023-05-07T06:32:31;2.80;;;2.60;;
38023;SDS011;23834;48.080;11.682;2023-05-07T06:34:56;2.37;;;2.17;;
38023;SDS011;23834;48.080;11.682;2023-05-07T06:37:21;2.47;;;2.37;;
38023;SDS011;23834;48.080;11.682;2023-05-07T06:39:46;2.97;;;2.77;;
38023;SDS011;23834;48.080;11.682;2023-05-07T06:42:11;2.90;;;2.70;;
38023;SDS011;23834;48.080;11.682;2023-05-07T06:44:37;2.80;;;2.60;;
38023;SDS011;23834;48.080;11.682;2023-05-07T06:47:02;2.97;;;2.67;;
38023;SDS011;23834;48.080;11.682;2023-05-07T06:49:27;2.67;;;2.20;;
38023;SDS011;23834;48.080;11.682;2023-05-07T06:51:52;2.70;;;2.60;;
38023;SDS011;23834;48.080;11.682;2023-05-07T06:54:18;2.83;;;2.63;;
38023;SDS011;23834;48.080;11.682;2023-05-07T06:56:43;2.57;;;2.47;;
38023;SDS011;23834;48.080;11.682;2023-05-07T06:59:08;2.90;;;2.63;;
38023;SDS011;23834;48.080;11.682;2023-05-07T07:01:33;2.50;;;2.30;;
38023;SDS011;23834;48.080;11.682;2023-05-07T07:03:58;2.43;;;2.33;;
38023;SDS011;23834;48.080;11.682;2023-05-07T07:06:24;2.57;;;2.37;;
38023;SDS011;23834;48.080;11.682;2023-05-07T07:08:50;2.37;;;2.17;;
38023;SDS011;23834;48.080;11.682;2023-05-07T07:11:15;4.00;;;2.60;;
38023;SDS011;23834;48.080;11.682;2023-05-07T07:13:41;2.50;;;2.30;;
38023;SDS011;23834;48.080;11.682;2023-05-07T07:16:07;2.57;;;2.37;;
38023;SDS011;23834;48.080;11.682;2023-05-07T07:18:33;2.70;;;2.50;;
38023;SDS011;23834;48.080;11.682;2023-05-07T07:20:58;2.73;;;2.53;;
38023;SDS011;23834;48.080;11.682;2023-05-07T07:23:24;2.73;;;2.53;;
38023;SDS011;23834;48.080;11.682;2023-05-07T07:25:49;2.53;;;2.33;;
38023;SDS011;23834;48.080;11.682;2023-05-07T07:28:14;2.27;;;2.17;;
38023;SDS011;23834;48.080;11.682;2023-05-07T07:30:39;2.67;;;2.47;;
38023;SDS011;23834;48.080;11.682;2023-05-07T07:33:05;3.07;;;2.77;;
38023;SDS011;23834;48.080;11.682;2023-05-07T07:35:31;2.40;;;2.30;;
38023;SDS011;23834;48.080;11.682;2023-05-07T07:37:56;2.73;;;2.60;;
38023;SDS011;23834;48.080;11.682;2023-05-07T07:40:21;2.17;;;2.07;;
38023;SDS011;23834;48.080;11.682;2023-05-07T07:42:46;2.63;;;2.47;;
38023;SDS011;23834;48.080;11.682;2023-05-07T07:45:11;3.60;;;2.90;;
38023;SDS011;23834;48.080;11.682;2023-05-07T07:47:37;2.50;;;2.30;;
38023;SDS011;23834;48.080;11.682;2023-05-07T07:50:02;2.43;;;2.27;;
38023;SDS011;23834;48.080;11.682;2023-05-07T07:52:28;2.70;;;2.50;;
38023;SDS011;23834;48.080;11.682;2023-05-07T07:54:53;2.47;;;2.27;;
38023;SDS011;23834;48.080;11.682;2023-05-07T07:57:18;2.70;;;2.50;;
38023;SDS011;23834;48.080;11.682;2023-05-07T07:59:43;2.47;;;2.27;;
38023;SDS011;23834;48.080;11.682;2023-05-07T08:02:08;2.63;;;2.43;;
38023;SDS011;23834;48.080;11.682;2023-05-07T08:04:34;2.20;;;2.10;;
38023;SDS011;23834;48.080;11.682;2023-05-07T08:07:00;2.80;;;2.40;;
38023;SDS011;23834;48.080;11.682;2023-05-07T08:09:25;2.50;;;2.30;;
38023;SDS011;23834;48.080;11.682;2023-05-07T08:11:50;2.70;;;2.50;;
38023;SDS011;23834;48.080;11.682;2023-05-07T08:14:15;2.30;;;2.10;;
38023;SDS011;23834;48.080;11.682;2023-05-07T08:16:41;2.40;;;2.23;;
38023;SDS011;23834;48.080;11.682;2023-05-07T08:19:06;2.73;;;2.53;;
38023;SDS011;23834;48.080;11.682;2023-05-07T08:21:31;3.70;;;2.43;;
38023;SDS011;23834;48.080;11.682;2023-05-07T08:23:56;2.77;;;2.57;;
38023;SDS011;23834;48.080;11.682;2023-05-07T08:26:21;2.60;;;2.40;;
38023;SDS011;23834;48.080;11.682;2023-05-07T08:28:47;2.40;;;2.30;;
38023;SDS011;23834;48.080;11.682;2023-05-07T08:31:12;2.03;;;1.93;;
38023;SDS011;23834;48.080;11.682;2023-05-07T08:33:37;2.53;;;2.43;;
38023;SDS011;23834;48.080;11.682;2023-05-07T08:36:03;2.63;;;2.40;;
38023;SDS011;23834;48.080;11.682;2023-05-07T08:38:28;3.00;;;2.80;;
38023;SDS011;23834;48.080;11.682;2023-05-07T08:40:54;2.60;;;2.50;;
38023;SDS011;23834;48.080;11.682;2023-05-07T08:43:19;2.33;;;2.20;;
38023;SDS011;23834;48.080;11.682;2023-05-07T08:45:44;2.43;;;2.13;;
38023;SDS011;23834;48.080;11.682;2023-05-07T08:48:17;2.37;;;2.20;;
38023;SDS011;23834;48.080;11.682;2023-05-07T08:50:42;2.30;;;2.10;;
38023;SDS011;23834;48.080;11.682;2023-05-07T08:53:07;2.17;;;2.07;;
38023;SDS011;23834;48.080;11.682;2023-05-07T08:55:33;2.23;;;2.13;;
38023;SDS011;23834;48.080;11.682;2023-05-07T08:57:58;2.40;;;2.20;;
38023;SDS011;23834;48.080;11.682;2023-05-07T09:00:23;2.27;;;2.17;;
38023;SDS011;23834;48.080;11.682;2023-05-07T09:02:48;1.93;;;1.83;;
38023;SDS011;23834;48.080;11.682;2023-05-07T09:05:14;2.20;;;2.00;;
38023;SDS011;23834;48.080;11.682;2023-05-07T09:07:39;2.93;;;2.40;;
38023;SDS011;23834;48.080;11.682;2023-05-07T09:10:04;2.03;;;1.93;;
38023;SDS011;23834;48.080;11.682;2023-05-07T09:12:30;2.30;;;2.20;;
38023;SDS011;23834;48.080;11.682;2023-05-07T09:14:55;1.97;;;1.87;;
38023;SDS011;23834;48.080;11.682;2023-05-07T09:17:21;2.27;;;2.10;;
38023;SDS011;23834;48.080;11.682;2023-05-07T09:19:46;2.57;;;2.37;;
38023;SDS011;23834;48.080;11.682;2023-05-07T09:22:11;2.83;;;2.40;;
38023;SDS011;23834;48.080;11.682;2023-05-07T09:24:37;2.20;;;2.10;;
38023;SDS011;23834;48.080;11.682;2023-05-07T09:27:03;2.53;;;2.33;;
38023;SDS011;23834;48.080;11.682;2023-05-07T09:29:28;2.60;;;2.47;;
38023;SDS011;23834;48.080;11.682;2023-05-07T09:32:04;2.50;;;2.30;;
38023;SDS011;23834;48.080;11.682;2023-05-07T09:34:30;2.10;;;1.90;;
38023;SDS011;23834;48.080;11.682;2023-05-07T09:36:56;2.30;;;2.20;;
38023;SDS011;23834;48.080;11.682;2023-05-07T09:39:21;2.30;;;2.20;;
38023;SDS011;23834;48.080;11.682;2023-05-07T09:41:47;2.30;;;2.20;;
38023;SDS011;23834;48.080;11.682;2023-05-07T09:44:14;2.60;;;2.50;;
38023;SDS011;23834;48.080;11.682;2023-05-07T09:46:42;2.20;;;2.10;;
38023;SDS011;23834;48.080;11.682;2023-05-07T09:49:07;2.20;;;2.10;;
38023;SDS011;23834;48.080;11.682;2023-05-07T09:51:39;2.20;;;2.10;;
38023;SDS011;23834;48.080;11.682;2023-05-07T09:54:06;2.23;;;2.03;;
38023;SDS011;23834;48.080;11.682;2023-05-07T09:56:31;2.10;;;2.00;;
38023;SDS011;23834;48.080;11.682;2023-05-07T09:58:57;2.30;;;2.10;;
38023;SDS011;23834;48.080;11.682;2023-05-07T10:01:24;2.00;;;1.90;;
38023;SDS011;23834;48.080;11.682;2023-05-07T10:03:50;2.10;;;2.00;;
38023;SDS011;23834;48.080;11.682;2023-05-07T10:06:16;2.30;;;2.20;;
38023;SDS011;23834;48.080;11.682;2023-05-07T10:08:42;2.40;;;2.20;;
38023;SDS011;23834;48.080;11.682;2023-05-07T10:11:07;2.37;;;2.27;;
38023;SDS011;23834;48.080;11.682;2023-05-07T10:13:34;2.10;;;2.00;;
38023;SDS011;23834;48.080;11.682;2023-05-07T10:16:01;2.47;;;2.27;;
38023;SDS011;23834;48.080;11.682;2023-05-07T10:18:26;2.20;;;2.10;;
38023;SDS011;23834;48.080;11.682;2023-05-07T10:20:54;2.40;;;2.20;;
38023;SDS011;23834;48.080;11.682;2023-05-07T10:23:24;2.17;;;2.00;;
38023;SDS011;23834;48.080;11.682;2023-05-07T10:25:49;2.20;;;2.10;;
38023;SDS011;23834;48.080;11.682;2023-05-07T10:28:14;2.40;;;2.30;;
38023;SDS011;23834;48.080;11.682;2023-05-07T10:33:13;2.47;;;2.27;;
38023;SDS011;23834;48.080;11.682;2023-05-07T10:35:43;2.53;;;2.43;;
38023;SDS011;23834;48.080;11.682;2023-05-07T10:38:10;2.10;;;2.00;;
38023;SDS011;23834;48.080;11.682;2023-05-07T10:40:35;2.33;;;2.20;;
38023;SDS011;23834;48.080;11.682;2023-05-07T10:43:01;2.50;;;2.30;;
38023;SDS011;23834;48.080;11.682;2023-05-07T10:45:28;2.17;;;2.07;;
38023;SDS011;23834;48.080;11.682;2023-05-07T10:48:12;2.07;;;1.97;;
38023;SDS011;23834;48.080;11.682;2023-05-07T10:50:38;2.40;;;2.10;;
38023;SDS011;23834;48.080;11.682;2023-05-07T10:53:19;2.60;;;2.27;;
38023;SDS011;23834;48.080;11.682;2023-05-07T10:55:46;2.20;;;2.10;;
38023;SDS011;23834;48.080;11.682;2023-05-07T10:58:33;2.10;;;2.00;;
38023;SDS011;23834;48.080;11.682;2023-05-07T11:01:00;2.07;;;1.97;;
38023;SDS011;23834;48.080;11.682;2023-05-07T11:03:26;2.00;;;1.90;;
38023;SDS011;23834;48.080;11.682;2023-05-07T11:08:54;2.53;;;2.33;;
38023;SDS011;23834;48.080;11.682;2023-05-07T11:11:38;1.90;;;1.80;;
38023;SDS011;23834;48.080;11.682;2023-05-07T11:14:05;2.03;;;1.93;;
38023;SDS011;23834;48.080;11.682;2023-05-07T11:16:30;2.23;;;2.13;;
38023;SDS011;23834;48.080;11.682;2023-05-07T11:18:58;2.10;;;2.00;;
38023;SDS011;23834;48.080;11.682;2023-05-07T11:21:33;2.47;;;2.37;;
38023;SDS011;23834;48.080;11.682;2023-05-07T11:23:59;1.83;;;1.67;;
38023;SDS011;23834;48.080;11.682;2023-05-07T11:26:24;2.00;;;1.90;;
38023;SDS011;23834;48.080;11.682;2023-05-07T11:28:50;2.27;;;2.07;;
38023;SDS011;23834;48.080;11.682;2023-05-07T11:31:17;1.87;;;1.77;;
38023;SDS011;23834;48.080;11.682;2023-05-07T11:33:45;2.20;;;2.10;;
38023;SDS011;23834;48.080;11.682;2023-05-07T11:36:10;2.17;;;2.00;;
38023;SDS011;23834;48.080;11.682;2023-05-07T11:38:36;2.10;;;2.00;;
38023;SDS011;23834;48.080;11.682;2023-05-07T11:41:01;1.80;;;1.70;;
38023;SDS011;23834;48.080;11.682;2023-05-07T11:43:27;2.70;;;2.50;;
38023;SDS011;23834;48.080;11.682;2023-05-07T11:45:53;1.83;;;1.73;;
38023;SDS011;23834;48.080;11.682;2023-05-07T11:48:18;2.00;;;1.90;;
38023;SDS011;23834;48.080;11.682;2023-05-07T11:51:02;2.07;;;1.97;;
38023;SDS011;23834;48.080;11.682;2023-05-07T11:53:28;2.03;;;1.93;;
38023;SDS011;23834;48.080;11.682;2023-05-07T11:55:54;2.17;;;1.97;;
38023;SDS011;23834;48.080;11.682;2023-05-07T11:58:20;2.13;;;2.03;;
38023;SDS011;23834;48.080;11.682;2023-05-07T12:00:49;2.07;;;1.97;;
38023;SDS011;23834;48.080;11.682;2023-05-07T12:03:15;2.40;;;2.20;;
38023;SDS011;23834;48.080;11.682;2023-05-07T12:05:40;2.33;;;2.23;;
38023;SDS011;23834;48.080;11.682;2023-05-07T12:08:06;2.40;;;2.20;;
38023;SDS011;23834;48.080;11.682;2023-05-07T12:10:32;2.00;;;1.90;;
38023;SDS011;23834;48.080;11.682;2023-05-07T12:12:57;1.90;;;1.80;;
38023;SDS011;23834;48.080;11.682;2023-05-07T12:15:22;1.97;;;1.87;;
38023;SDS011;23834;48.080;11.682;2023-05-07T12:17:47;1.70;;;1.60;;
38023;SDS011;23834;48.080;11.682;2023-05-07T12:20:13;2.20;;;2.10;;
38023;SDS011;23834;48.080;11.682;2023-05-07T12:22:40;2.00;;;1.90;;
38023;SDS011;23834;48.080;11.682;2023-05-07T12:25:06;2.10;;;2.00;;
38023;SDS011;23834;48.080;11.682;2023-05-07T12:27:31;1.93;;;1.83;;
38023;SDS011;23834;48.080;11.682;2023-05-07T12:29:57;2.57;;;2.37;;
38023;SDS011;23834;48.080;11.682;2023-05-07T12:32:22;1.93;;;1.83;;
38023;SDS011;23834;48.080;11.682;2023-05-07T12:34:51;2.17;;;2.07;;
38023;SDS011;23834;48.080;11.682;2023-05-07T12:37:16;2.00;;;1.90;;
38023;SDS011;23834;48.080;11.682;2023-05-07T12:39:47;2.37;;;2.27;;
38023;SDS011;23834;48.080;11.682;2023-05-07T12:42:16;1.90;;;1.80;;
38023;SDS011;23834;48.080;11.682;2023-05-07T12:44:43;2.27;;;2.17;;
38023;SDS011;23834;48.080;11.682;2023-05-07T12:47:10;2.93;;;2.10;;
38023;SDS011;23834;48.080;11.682;2023-05-07T12:49:35;2.77;;;2.57;;
38023;SDS011;23834;48.080;11.682;2023-05-07T12:52:03;2.10;;;2.00;;
38023;SDS011;23834;48.080;11.682;2023-05-07T12:54:29;2.57;;;2.37;;
38023;SDS011;23834;48.080;11.682;2023-05-07T12:57:02;2.20;;;2.10;;
38023;SDS011;23834;48.080;11.682;2023-05-07T12:59:45;2.60;;;2.43;;
38023;SDS011;23834;48.080;11.682;2023-05-07T13:02:10;2.00;;;1.90;;
38023;SDS011;23834;48.080;11.682;2023-05-07T13:04:36;2.60;;;2.40;;
38023;SDS011;23834;48.080;11.682;2023-05-07T13:07:01;2.23;;;2.13;;
38023;SDS011;23834;48.080;11.682;2023-05-07T13:09:26;2.40;;;2.30;;
38023;SDS011;23834;48.080;11.682;2023-05-07T13:11:53;1.97;;;1.87;;
38023;SDS011;23834;48.080;11.682;2023-05-07T13:14:18;2.20;;;2.10;;
38023;SDS011;23834;48.080;11.682;2023-05-07T13:16:45;2.20;;;2.10;;
38023;SDS011;23834;48.080;11.682;2023-05-07T13:19:11;1.97;;;1.87;;
38023;SDS011;23834;48.080;11.682;2023-05-07T13:21:36;2.33;;;2.23;;
38023;SDS011;23834;48.080;11.682;2023-05-07T13:24:02;2.00;;;1.90;;
38023;SDS011;23834;48.080;11.682;2023-05-07T13:26:27;2.30;;;2.20;;
38023;SDS011;23834;48.080;11.682;2023-05-07T13:28:53;2.57;;;2.37;;
38023;SDS011;23834;48.080;11.682;2023-05-07T13:31:18;2.50;;;2.40;;
38023;SDS011;23834;48.080;11.682;2023-05-07T13:33:43;2.40;;;2.20;;
38023;SDS011;23834;48.080;11.682;2023-05-07T13:36:08;2.23;;;2.13;;
38023;SDS011;23834;48.080;11.682;2023-05-07T13:38:34;2.60;;;2.50;;
38023;SDS011;23834;48.080;11.682;2023-05-07T13:40:59;2.00;;;1.90;;
38023;SDS011;23834;48.080;11.682;2023-05-07T13:43:24;2.30;;;2.10;;
38023;SDS011;23834;48.080;11.682;2023-05-07T13:45:50;2.33;;;2.17;;
38023;SDS011;23834;48.080;11.682;2023-05-07T13:48:15;2.50;;;2.30;;
38023;SDS011;23834;48.080;11.682;2023-05-07T13:50:40;2.30;;;2.20;;
38023;SDS011;23834;48.080;11.682;2023-05-07T13:53:05;2.17;;;2.00;;
38023;SDS011;23834;48.080;11.682;2023-05-07T13:55:31;2.30;;;2.10;;
38023;SDS011;23834;48.080;11.682;2023-05-07T13:57:57;1.97;;;1.87;;
38023;SDS011;23834;48.080;11.682;2023-05-07T14:00:23;2.40;;;2.30;;
38023;SDS011;23834;48.080;11.682;2023-05-07T14:02:49;2.40;;;2.30;;
38023;SDS011;23834;48.080;11.682;2023-05-07T14:05:14;2.57;;;2.37;;
38023;SDS011;23834;48.080;11.682;2023-05-07T14:07:39;2.53;;;2.33;;
38023;SDS011;23834;48.080;11.682;2023-05-07T14:10:05;2.60;;;2.40;;
38023;SDS011;23834;48.080;11.682;2023-05-07T14:12:31;2.30;;;2.13;;
38023;SDS011;23834;48.080;11.682;2023-05-07T14:14:56;2.47;;;2.33;;
38023;SDS011;23834;48.080;11.682;2023-05-07T14:17:21;2.30;;;2.20;;
38023;SDS011;23834;48.080;11.682;2023-05-07T14:19:48;2.53;;;2.43;;
38023;SDS011;23834;48.080;11.682;2023-05-07T14:22:13;2.43;;;2.23;;
38023;SDS011;23834;48.080;11.682;2023-05-07T14:24:39;2.47;;;2.27;;
38023;SDS011;23834;48.080;11.682;2023-05-07T14:27:04;2.60;;;2.40;;
38023;SDS011;23834;48.080;11.682;2023-05-07T14:29:30;2.00;;;1.90;;
38023;SDS011;23834;48.080;11.682;2023-05-07T14:31:55;2.40;;;2.30;;